createdAt,value
2022-12-03T00:02:16.242Z,-0.20
2022-12-03T00:04:54.986Z,-0.20
2022-12-03T00:07:29.519Z,-0.20
2022-12-03T00:10:03.352Z,-0.20
2022-12-03T00:12:35.750Z,-0.20
2022-12-03T00:15:11.818Z,-0.20
2022-12-03T00:17:43.580Z,-0.20
2022-12-03T00:20:23.806Z,-0.20
2022-12-03T00:22:56.878Z,-0.20
2022-12-03T00:25:31.381Z,-0.20
2022-12-03T00:28:09.792Z,-0.20
2022-12-03T00:30:43.075Z,-0.20
2022-12-03T00:33:14.832Z,-0.20
2022-12-03T00:35:49.921Z,-0.30
2022-12-03T00:38:21.616Z,-0.30
2022-12-03T00:40:54.031Z,-0.30
2022-12-03T00:43:32.067Z,-0.30
2022-12-03T00:46:00.275Z,-0.30
2022-12-03T00:48:31.797Z,-0.30
2022-12-03T00:51:03.678Z,-0.30
2022-12-03T00:53:35.768Z,-0.40
2022-12-03T00:56:08.342Z,-0.40
2022-12-03T00:58:39.937Z,-0.50
2022-12-03T01:01:12.679Z,-0.50
2022-12-03T01:03:45.393Z,-0.50
2022-12-03T01:06:17.044Z,-0.50
2022-12-03T01:08:48.776Z,-0.60
2022-12-03T01:11:48.045Z,-0.60
2022-12-03T01:14:20.707Z,-0.60
2022-12-03T01:16:52.279Z,-0.70
2022-12-03T01:19:25.654Z,-0.60
2022-12-03T01:21:58.951Z,-0.60
2022-12-03T01:24:30.438Z,-0.70
2022-12-03T01:27:02.073Z,-0.70
2022-12-03T01:29:33.483Z,-0.70
2022-12-03T01:32:20.096Z,-0.70
2022-12-03T01:34:54.231Z,-0.70
2022-12-03T01:37:27.606Z,-0.70
2022-12-03T01:39:59.626Z,-0.70
2022-12-03T01:42:33.919Z,-0.80
2022-12-03T01:45:06.246Z,-0.70
2022-12-03T01:47:38.996Z,-0.70
2022-12-03T01:50:15.093Z,-0.70
2022-12-03T01:52:47.316Z,-0.80
2022-12-03T01:55:22.194Z,-0.80
2022-12-03T01:57:59.636Z,-0.80
2022-12-03T02:00:34.069Z,-0.90
2022-12-03T02:03:09.412Z,-0.80
2022-12-03T02:05:43.570Z,-0.90
2022-12-03T02:08:38.567Z,-0.90
2022-12-03T02:11:16.262Z,-0.90
2022-12-03T02:13:50.781Z,-0.80
2022-12-03T02:16:24.538Z,-0.80
2022-12-03T02:18:57.402Z,-0.80
2022-12-03T02:21:37.849Z,-0.90
2022-12-03T02:24:13.288Z,-0.90
2022-12-03T02:26:44.881Z,-0.80
2022-12-03T02:29:16.715Z,-0.60
2022-12-03T02:31:50.446Z,-0.60
2022-12-03T02:34:42.169Z,-0.60
2022-12-03T02:37:18.807Z,-0.60
2022-12-03T02:39:53.438Z,-0.70
2022-12-03T02:42:38.190Z,-0.70
2022-12-03T02:45:14.487Z,-0.80
2022-12-03T02:47:50.303Z,-0.80
2022-12-03T02:50:25.559Z,-0.80
2022-12-03T02:52:59.901Z,-0.90
2022-12-03T02:55:37.082Z,-0.90
2022-12-03T02:58:09.495Z,-0.90
2022-12-03T03:00:42.164Z,-0.90
2022-12-03T03:03:16.281Z,-0.90
2022-12-03T03:05:50.386Z,-0.90
2022-12-03T03:08:24.543Z,-0.90
2022-12-03T03:10:58.605Z,-1.00
2022-12-03T03:13:40.516Z,-1.00
2022-12-03T03:16:12.339Z,-1.00
2022-12-03T03:18:44.104Z,-1.00
2022-12-03T03:21:17.623Z,-0.90
2022-12-03T03:23:49.546Z,-0.90
2022-12-03T03:26:23.926Z,-0.90
2022-12-03T03:29:01.231Z,-0.90
2022-12-03T03:31:35.082Z,-0.90
2022-12-03T03:34:08.740Z,-1.00
2022-12-03T03:36:41.235Z,-1.00
2022-12-03T03:39:13.113Z,-1.10
2022-12-03T03:41:46.694Z,-1.20
2022-12-03T03:44:18.430Z,-1.10
2022-12-03T03:46:49.979Z,-1.10
2022-12-03T03:49:23.575Z,-1.10
2022-12-03T03:51:55.646Z,-1.10
2022-12-03T03:54:29.462Z,-1.10
2022-12-03T03:57:03.492Z,-1.10
2022-12-03T03:59:35.887Z,-1.10
2022-12-03T04:02:08.593Z,-1.10
2022-12-03T04:04:40.287Z,-1.10
2022-12-03T04:07:14.182Z,-1.10
2022-12-03T04:09:45.646Z,-1.00
2022-12-03T04:12:36.105Z,-1.00
2022-12-03T04:15:10.035Z,-1.10
2022-12-03T04:17:41.833Z,-1.00
2022-12-03T04:20:17.821Z,-1.00
2022-12-03T04:22:52.377Z,-1.10
2022-12-03T04:25:42.954Z,-1.10
2022-12-03T04:28:32.111Z,-1.20
2022-12-03T04:31:05.996Z,-1.20
2022-12-03T04:34:14.554Z,-1.20
2022-12-03T04:39:34.155Z,-1.20
2022-12-03T04:42:06.466Z,-1.20
2022-12-03T04:44:38.975Z,-1.20
2022-12-03T04:47:17.249Z,-1.20
2022-12-03T04:49:52.103Z,-1.30
2022-12-03T04:52:27.840Z,-1.30
2022-12-03T04:55:01.165Z,-1.30
2022-12-03T04:57:36.305Z,-1.30
2022-12-03T05:00:13.342Z,-1.30
2022-12-03T05:02:47.222Z,-1.20
2022-12-03T05:05:23.783Z,-1.30
2022-12-03T05:07:55.412Z,-1.30
2022-12-03T05:10:26.866Z,-1.30
2022-12-03T05:12:58.596Z,-1.40
2022-12-03T05:15:30.253Z,-1.40
2022-12-03T05:18:05.203Z,-1.40
2022-12-03T05:20:52.999Z,-1.40
2022-12-03T05:23:19.288Z,-1.40
2022-12-03T05:25:51.333Z,-1.40
2022-12-03T05:28:24.180Z,-1.40
2022-12-03T05:30:55.494Z,-1.30
2022-12-03T05:33:27.262Z,-1.30
2022-12-03T05:35:58.842Z,-1.20
2022-12-03T05:38:31.260Z,-1.20
2022-12-03T05:41:03.038Z,-1.20
2022-12-03T05:43:34.551Z,-1.20
2022-12-03T05:46:06.041Z,-1.20
2022-12-03T05:48:37.404Z,-1.20
2022-12-03T05:51:08.861Z,-1.30
2022-12-03T05:53:40.289Z,-1.20
2022-12-03T05:56:11.725Z,-1.30
2022-12-03T05:58:43.188Z,-1.30
2022-12-03T06:01:14.760Z,-1.30
2022-12-03T06:03:46.392Z,-1.30
2022-12-03T06:06:18.838Z,-1.30
2022-12-03T06:08:50.118Z,-1.30
2022-12-03T06:11:21.560Z,-1.30
2022-12-03T06:13:53.048Z,-1.20
2022-12-03T06:16:24.796Z,-1.10
2022-12-03T06:18:56.229Z,-1.10
2022-12-03T06:21:27.805Z,-1.00
2022-12-03T06:24:00.160Z,-1.00
2022-12-03T06:26:31.369Z,-0.90
2022-12-03T06:29:09.279Z,-0.90
2022-12-03T06:31:57.767Z,-0.90
2022-12-03T06:34:36.307Z,-0.80
2022-12-03T06:37:04.385Z,-0.70
2022-12-03T06:39:35.708Z,-0.70
2022-12-03T06:42:15.946Z,-0.70
2022-12-03T06:44:51.545Z,-0.70
2022-12-03T06:47:23.477Z,-0.70
2022-12-03T06:49:54.934Z,-0.80
2022-12-03T06:52:26.931Z,-0.80
2022-12-03T06:54:58.387Z,-0.80
2022-12-03T06:57:33.607Z,-0.90
2022-12-03T07:00:06.304Z,-0.90
2022-12-03T07:02:39.241Z,-0.90
2022-12-03T07:05:11.299Z,-0.90
2022-12-03T07:07:42.667Z,-0.90
2022-12-03T07:10:14.836Z,-0.90
2022-12-03T07:12:46.177Z,-0.90
2022-12-03T07:15:18.028Z,-0.80
2022-12-03T07:17:49.435Z,-0.80
2022-12-03T07:20:21.104Z,-0.80
2022-12-03T07:22:52.486Z,-0.70
2022-12-03T07:25:23.977Z,-0.70
2022-12-03T07:27:55.584Z,-0.70
2022-12-03T07:30:28.069Z,-0.60
2022-12-03T07:32:59.718Z,-0.50
2022-12-03T07:35:31.139Z,-0.50
2022-12-03T07:38:02.659Z,-0.30
2022-12-03T07:40:34.382Z,-0.30
2022-12-03T07:43:05.951Z,-0.20
2022-12-03T07:45:37.346Z,-0.10
2022-12-03T07:48:08.936Z,0.00
2022-12-03T07:50:40.632Z,0.10
2022-12-03T07:53:12.537Z,0.20
2022-12-03T07:55:52.853Z,0.20
2022-12-03T07:58:24.281Z,0.30
2022-12-03T08:00:56.231Z,0.40
2022-12-03T08:03:27.610Z,0.50
2022-12-03T08:05:58.915Z,0.60
2022-12-03T08:08:30.325Z,0.70
2022-12-03T08:11:03.111Z,0.80
2022-12-03T08:13:35.907Z,0.90
2022-12-03T08:16:14.496Z,1.00
2022-12-03T08:18:46.129Z,1.10
2022-12-03T08:21:19.993Z,1.20
2022-12-03T08:23:51.485Z,1.30
2022-12-03T08:26:26.184Z,1.40
2022-12-03T08:28:58.086Z,1.50
2022-12-03T08:31:33.668Z,1.60
2022-12-03T08:34:17.327Z,1.70
2022-12-03T08:36:50.777Z,1.80
2022-12-03T08:39:33.973Z,1.80
2022-12-03T08:42:29.584Z,1.90
2022-12-03T08:45:05.313Z,1.90
2022-12-03T08:47:36.824Z,2.00
2022-12-03T08:50:12.726Z,2.00
2022-12-03T08:52:43.772Z,2.10
2022-12-03T08:55:30.480Z,2.20
2022-12-03T08:58:05.579Z,2.20
2022-12-03T09:00:38.144Z,2.20
2022-12-03T09:03:13.940Z,2.20
2022-12-03T09:05:45.524Z,2.20
2022-12-03T09:08:17.301Z,2.10
2022-12-03T09:10:48.729Z,2.10
2022-12-03T09:13:20.266Z,2.20
2022-12-03T09:15:51.851Z,2.30
2022-12-03T09:18:23.413Z,2.40
2022-12-03T09:20:55.582Z,2.50
2022-12-03T09:23:27.485Z,2.50
2022-12-03T09:25:59.140Z,2.60
2022-12-03T09:29:23.422Z,2.70
2022-12-03T09:55:45.887Z,3.20
2022-12-03T11:36:27.605Z,4.30
2022-12-03T11:39:53.397Z,4.30
2022-12-03T11:43:36.631Z,4.30
2022-12-03T11:54:50.507Z,4.30
2022-12-03T11:57:29.455Z,4.30
2022-12-03T12:03:49.049Z,4.30
2022-12-03T12:07:39.110Z,4.20
2022-12-03T12:14:04.992Z,4.20
2022-12-03T12:20:15.568Z,4.10
2022-12-03T12:26:18.853Z,4.10
2022-12-03T12:29:01.286Z,4.20
2022-12-03T12:31:35.454Z,4.20
2022-12-03T12:34:19.508Z,4.10
2022-12-03T12:37:03.861Z,4.10
2022-12-03T12:39:36.163Z,4.10
2022-12-03T12:42:25.626Z,4.00
2022-12-03T12:45:17.107Z,4.00
2022-12-03T12:47:53.631Z,4.00
2022-12-03T12:50:27.236Z,4.00
2022-12-03T12:53:03.040Z,4.00
2022-12-03T12:55:36.030Z,4.00
2022-12-03T12:58:29.253Z,4.00
2022-12-03T13:01:10.058Z,3.90
2022-12-03T13:03:42.482Z,3.90
2022-12-03T13:06:18.736Z,4.00
2022-12-03T13:14:38.312Z,4.00
2022-12-03T13:17:39.884Z,4.00
2022-12-03T13:20:47.519Z,4.00
2022-12-03T13:23:37.647Z,3.90
2022-12-03T13:33:03.158Z,4.00
2022-12-03T13:35:36.896Z,3.90
2022-12-03T13:38:14.462Z,3.90
2022-12-03T13:43:42.992Z,3.90
2022-12-03T13:46:16.522Z,3.90
2022-12-03T13:48:50.455Z,4.00
2022-12-03T13:51:32.013Z,4.00
2022-12-03T13:54:14.439Z,4.00
2022-12-03T13:56:45.137Z,4.10
2022-12-03T13:59:25.940Z,4.10
2022-12-03T14:01:58.187Z,4.10
2022-12-03T14:04:31.838Z,4.10
2022-12-03T14:07:05.893Z,4.20
2022-12-03T14:09:38.401Z,4.20
2022-12-03T14:12:32.493Z,4.20
2022-12-03T14:15:06.149Z,4.30
2022-12-03T14:17:42.582Z,4.30
2022-12-03T14:20:18.261Z,4.30
2022-12-03T14:22:49.588Z,4.30
2022-12-03T14:25:27.326Z,4.30
2022-12-03T14:28:00.414Z,4.30
2022-12-03T14:30:32.846Z,4.30
2022-12-03T14:33:04.539Z,4.30
2022-12-03T14:35:36.434Z,4.20
2022-12-03T14:38:11.029Z,4.20
2022-12-03T14:40:43.074Z,4.20
2022-12-03T14:43:14.747Z,4.10
2022-12-03T14:45:46.442Z,4.00
2022-12-03T14:48:19.169Z,4.00
2022-12-03T14:50:53.177Z,4.00
2022-12-03T14:53:28.732Z,3.90
2022-12-03T14:56:05.616Z,3.90
2022-12-03T14:58:41.932Z,3.90
2022-12-03T15:01:14.836Z,3.80
2022-12-03T15:03:46.862Z,3.70
2022-12-03T15:06:19.582Z,3.70
2022-12-03T15:08:51.530Z,3.70
2022-12-03T15:11:27.468Z,3.60
2022-12-03T15:14:00.193Z,3.60
2022-12-03T15:16:31.689Z,3.60
2022-12-03T15:19:03.511Z,3.60
2022-12-03T15:21:35.490Z,3.60
2022-12-03T15:24:07.918Z,3.50
2022-12-03T15:26:40.408Z,3.50
2022-12-03T15:29:12.230Z,3.40
2022-12-03T15:31:43.845Z,3.40
2022-12-03T15:34:21.856Z,3.30
2022-12-03T15:36:48.652Z,3.30
2022-12-03T15:39:20.637Z,3.30
2022-12-03T15:41:52.037Z,3.30
2022-12-03T15:44:23.737Z,3.30
2022-12-03T15:46:55.245Z,3.20
2022-12-03T15:49:28.454Z,3.20
2022-12-03T15:52:00.355Z,3.20
2022-12-03T15:54:31.957Z,3.20
2022-12-03T15:57:03.414Z,3.10
2022-12-03T15:59:35.067Z,3.10
2022-12-03T16:04:53.500Z,3.10
2022-12-03T16:07:26.515Z,3.10
2022-12-03T16:09:58.447Z,3.00
2022-12-03T16:12:30.559Z,3.00
2022-12-03T16:15:04.121Z,3.00
2022-12-03T16:18:00.106Z,2.90
2022-12-03T16:20:34.233Z,3.00
2022-12-03T16:23:11.364Z,2.90
2022-12-03T16:25:51.092Z,2.90
2022-12-03T16:28:23.800Z,2.80
2022-12-03T16:30:57.235Z,2.80
2022-12-03T16:33:30.160Z,2.80
2022-12-03T16:36:03.175Z,2.70
2022-12-03T16:38:40.428Z,2.70
2022-12-03T16:41:16.128Z,2.60
2022-12-03T16:44:19.565Z,2.50
2022-12-03T16:46:52.720Z,2.50
2022-12-03T16:49:25.586Z,2.40
2022-12-03T16:51:57.800Z,2.40
2022-12-03T16:54:29.989Z,2.40
2022-12-03T16:57:03.417Z,2.40
2022-12-03T16:59:36.941Z,2.40
2022-12-03T17:02:11.576Z,2.40
2022-12-03T17:04:46.633Z,2.30
2022-12-03T17:07:25.462Z,2.30
2022-12-03T17:10:47.270Z,2.30
2022-12-03T17:16:06.850Z,2.20
2022-12-03T17:22:19.177Z,2.30
2022-12-03T17:22:28.259Z,2.30
2022-12-03T17:25:30.147Z,2.30
2022-12-03T17:38:54.771Z,2.60
2022-12-03T17:41:26.767Z,2.70
2022-12-03T17:44:05.987Z,2.60
2022-12-03T17:46:35.678Z,2.70
2022-12-03T17:49:08.681Z,2.70
2022-12-03T17:51:41.844Z,2.70
2022-12-03T17:54:21.248Z,2.80
2022-12-03T17:56:51.264Z,2.80
2022-12-03T17:59:50.378Z,2.80
2022-12-03T18:02:19.831Z,2.80
2022-12-03T18:04:51.864Z,2.90
2022-12-03T18:07:24.556Z,3.00
2022-12-03T18:09:57.350Z,3.00
2022-12-03T18:12:27.935Z,3.00
2022-12-03T18:14:59.848Z,3.10
2022-12-03T18:17:35.939Z,3.10
2022-12-03T18:20:13.944Z,3.20
2022-12-03T18:22:53.364Z,3.10
2022-12-03T18:25:24.613Z,3.10
2022-12-03T18:27:56.219Z,3.10
2022-12-03T18:30:33.565Z,3.10
2022-12-03T18:33:05.131Z,3.10
2022-12-03T18:35:41.563Z,3.10
2022-12-03T18:38:13.658Z,3.10
2022-12-03T18:40:46.488Z,3.00
2022-12-03T18:43:18.510Z,3.00
2022-12-03T18:45:50.542Z,3.00
2022-12-03T18:48:22.941Z,3.00
2022-12-03T18:53:53.247Z,2.90
2022-12-03T18:56:24.548Z,2.90
2022-12-03T18:58:55.958Z,2.80
2022-12-03T19:01:33.622Z,2.70
2022-12-03T19:04:06.333Z,2.70
2022-12-03T19:06:37.473Z,2.70
2022-12-03T19:09:07.190Z,2.70
2022-12-03T19:11:38.313Z,2.70
2022-12-03T19:14:11.814Z,2.70
2022-12-03T19:16:44.414Z,2.70
2022-12-03T19:19:21.402Z,2.70
2022-12-03T19:22:04.659Z,2.80
2022-12-03T19:24:37.238Z,2.80
2022-12-03T19:27:10.945Z,2.80
2022-12-03T19:30:19.992Z,2.80
2022-12-03T19:32:48.933Z,2.70
2022-12-03T19:35:23.559Z,2.60
2022-12-03T19:38:11.898Z,2.50
2022-12-03T19:40:51.646Z,2.50
2022-12-03T19:54:45.272Z,2.50
2022-12-03T19:58:00.706Z,2.50
2022-12-03T20:01:50.768Z,2.50
2022-12-03T20:05:42.490Z,2.40
2022-12-03T20:12:41.743Z,2.40
2022-12-03T20:16:10.825Z,2.50
2022-12-03T20:22:38.709Z,2.50
2022-12-03T20:25:46.277Z,2.50
2022-12-03T20:29:12.790Z,2.60
2022-12-03T20:32:32.111Z,2.60
2022-12-03T20:38:26.805Z,2.60
2022-12-03T20:49:35.752Z,2.80
2022-12-03T20:56:50.508Z,2.80
2022-12-03T21:08:11.206Z,2.80
2022-12-03T21:22:45.080Z,2.80
2022-12-03T21:25:22.474Z,2.90
2022-12-03T21:28:16.059Z,2.90
2022-12-03T21:33:51.285Z,2.90
2022-12-03T21:36:34.857Z,2.90
2022-12-03T21:39:25.529Z,2.90
2022-12-03T21:42:33.270Z,2.90
2022-12-03T21:44:51.791Z,3.00
2022-12-03T21:47:36.528Z,2.90
2022-12-03T21:50:14.648Z,2.90
2022-12-03T21:56:34.329Z,3.00
2022-12-03T21:59:33.022Z,3.00
2022-12-03T22:02:40.948Z,3.00
2022-12-03T22:05:46.378Z,2.90
2022-12-03T22:12:49.529Z,3.00
2022-12-03T22:15:22.599Z,2.90
2022-12-03T22:17:56.205Z,3.00
2022-12-03T22:20:29.847Z,3.00
2022-12-03T22:23:02.014Z,3.00
2022-12-03T22:25:39.803Z,2.90
2022-12-03T22:28:12.696Z,2.80
2022-12-03T22:30:47.127Z,2.80
2022-12-03T22:33:19.624Z,2.70
2022-12-03T22:36:03.128Z,2.70
2022-12-03T22:38:35.842Z,2.60
2022-12-03T22:41:08.652Z,2.60
2022-12-03T22:43:40.348Z,2.50
2022-12-03T22:46:36.502Z,2.50
2022-12-03T22:49:07.998Z,2.40
2022-12-03T22:51:39.276Z,2.40
2022-12-03T22:54:12.404Z,2.40
2022-12-03T22:56:44.109Z,2.40
2022-12-03T22:59:15.414Z,2.50
2022-12-03T23:01:47.679Z,2.50
2022-12-03T23:04:19.367Z,2.50
2022-12-03T23:06:50.859Z,2.50
2022-12-03T23:09:22.283Z,2.50
2022-12-03T23:11:53.765Z,2.60
2022-12-03T23:14:25.176Z,2.50
2022-12-03T23:16:56.479Z,2.50
2022-12-03T23:19:27.960Z,2.50
2022-12-03T23:22:00.074Z,2.60
2022-12-03T23:24:33.061Z,2.60
2022-12-03T23:27:06.737Z,2.60
2022-12-03T23:29:38.179Z,2.60
2022-12-03T23:32:09.499Z,2.70
2022-12-03T23:34:41.480Z,2.70
2022-12-03T23:37:12.838Z,2.70
2022-12-03T23:39:44.784Z,2.70
2022-12-03T23:42:16.161Z,2.70
2022-12-03T23:44:47.432Z,2.70
2022-12-03T23:47:19.699Z,2.70
2022-12-03T23:49:51.011Z,2.60
2022-12-03T23:52:22.390Z,2.50
2022-12-03T23:54:53.596Z,2.60
2022-12-03T23:57:24.994Z,2.50
2022-12-03T23:59:56.599Z,2.50
